sensor_id;sensor_type;location;lat;lon;timestamp;P1;durP1;ratioP1;P2;durP2;ratioP2
54454;SDS011;40364;52.270;10.546;2022-10-23T00:01:51;11.30;;;4.50;;
54454;SDS011;40364;52.270;10.546;2022-10-23T00:04:19;9.25;;;4.53;;
54454;SDS011;40364;52.270;10.546;2022-10-23T00:06:47;10.55;;;4.70;;
54454;SDS011;40364;52.270;10.546;2022-10-23T00:09:16;10.73;;;4.35;;
54454;SDS011;40364;52.270;10.546;2022-10-23T00:11:45;8.05;;;4.50;;
54454;SDS011;40364;52.270;10.546;2022-10-23T00:14:13;11.70;;;4.38;;
54454;SDS011;40364;52.270;10.546;2022-10-23T00:16:40;7.28;;;4.40;;
54454;SDS011;40364;52.270;10.546;2022-10-23T00:19:07;12.88;;;4.70;;
54454;SDS011;40364;52.270;10.546;2022-10-23T00:21:34;13.75;;;4.55;;
54454;SDS011;40364;52.270;10.546;2022-10-23T00:24:01;11.20;;;5.40;;
54454;SDS011;40364;52.270;10.546;2022-10-23T00:26:29;8.82;;;4.40;;
54454;SDS011;40364;52.270;10.546;2022-10-23T00:28:56;10.45;;;4.30;;
54454;SDS011;40364;52.270;10.546;2022-10-23T00:31:23;13.80;;;4.85;;
54454;SDS011;40364;52.270;10.546;2022-10-23T00:33:50;8.50;;;4.22;;
54454;SDS011;40364;52.270;10.546;2022-10-23T00:36:17;6.63;;;4.25;;
54454;SDS011;40364;52.270;10.546;2022-10-23T00:38:45;7.63;;;4.18;;
54454;SDS011;40364;52.270;10.546;2022-10-23T00:41:14;10.52;;;4.07;;
54454;SDS011;40364;52.270;10.546;2022-10-23T00:43:59;15.70;;;4.47;;
54454;SDS011;40364;52.270;10.546;2022-10-23T00:46:28;10.82;;;4.75;;
54454;SDS011;40364;52.270;10.546;2022-10-23T00:48:55;16.00;;;4.80;;
54454;SDS011;40364;52.270;10.546;2022-10-23T00:51:23;13.57;;;4.57;;
54454;SDS011;40364;52.270;10.546;2022-10-23T00:53:58;10.73;;;4.43;;
54454;SDS011;40364;52.270;10.546;2022-10-23T00:56:25;11.23;;;4.30;;
54454;SDS011;40364;52.270;10.546;2022-10-23T00:58:52;11.00;;;4.00;;
54454;SDS011;40364;52.270;10.546;2022-10-23T01:01:21;9.93;;;4.82;;
54454;SDS011;40364;52.270;10.546;2022-10-23T01:03:48;11.90;;;5.15;;
54454;SDS011;40364;52.270;10.546;2022-10-23T01:06:18;6.80;;;4.32;;
54454;SDS011;40364;52.270;10.546;2022-10-23T01:08:56;7.25;;;3.67;;
54454;SDS011;40364;52.270;10.546;2022-10-23T01:11:29;10.18;;;4.13;;
54454;SDS011;40364;52.270;10.546;2022-10-23T01:14:05;7.28;;;4.22;;
54454;SDS011;40364;52.270;10.546;2022-10-23T01:16:45;8.18;;;3.72;;
54454;SDS011;40364;52.270;10.546;2022-10-23T01:19:24;11.50;;;3.65;;
54454;SDS011;40364;52.270;10.546;2022-10-23T01:22:11;7.30;;;3.65;;
54454;SDS011;40364;52.270;10.546;2022-10-23T01:24:50;7.20;;;3.58;;
54454;SDS011;40364;52.270;10.546;2022-10-23T01:27:24;8.88;;;4.32;;
54454;SDS011;40364;52.270;10.546;2022-10-23T01:30:01;10.00;;;3.67;;
54454;SDS011;40364;52.270;10.546;2022-10-23T01:32:33;6.93;;;3.40;;
54454;SDS011;40364;52.270;10.546;2022-10-23T01:35:05;6.40;;;3.70;;
54454;SDS011;40364;52.270;10.546;2022-10-23T01:37:37;5.85;;;3.40;;
54454;SDS011;40364;52.270;10.546;2022-10-23T01:40:08;9.45;;;3.85;;
54454;SDS011;40364;52.270;10.546;2022-10-23T01:42:42;7.22;;;3.67;;
54454;SDS011;40364;52.270;10.546;2022-10-23T01:45:12;10.43;;;3.80;;
54454;SDS011;40364;52.270;10.546;2022-10-23T01:47:44;11.43;;;4.40;;
54454;SDS011;40364;52.270;10.546;2022-10-23T01:50:12;7.03;;;3.63;;
54454;SDS011;40364;52.270;10.546;2022-10-23T01:52:41;4.93;;;3.22;;
54454;SDS011;40364;52.270;10.546;2022-10-23T01:55:09;10.43;;;3.58;;
54454;SDS011;40364;52.270;10.546;2022-10-23T01:57:37;6.55;;;3.63;;
54454;SDS011;40364;52.270;10.546;2022-10-23T02:00:08;7.40;;;3.50;;
54454;SDS011;40364;52.270;10.546;2022-10-23T02:02:38;6.35;;;3.80;;
54454;SDS011;40364;52.270;10.546;2022-10-23T02:05:09;5.97;;;3.50;;
54454;SDS011;40364;52.270;10.546;2022-10-23T02:07:40;17.50;;;4.28;;
54454;SDS011;40364;52.270;10.546;2022-10-23T02:10:07;10.10;;;3.88;;
54454;SDS011;40364;52.270;10.546;2022-10-23T02:12:37;8.50;;;3.63;;
54454;SDS011;40364;52.270;10.546;2022-10-23T02:15:13;7.78;;;3.63;;
54454;SDS011;40364;52.270;10.546;2022-10-23T02:17:48;8.95;;;4.35;;
54454;SDS011;40364;52.270;10.546;2022-10-23T02:20:19;6.10;;;3.72;;
54454;SDS011;40364;52.270;10.546;2022-10-23T02:22:54;7.55;;;3.72;;
54454;SDS011;40364;52.270;10.546;2022-10-23T02:25:27;7.07;;;3.67;;
54454;SDS011;40364;52.270;10.546;2022-10-23T02:27:59;7.85;;;4.18;;
54454;SDS011;40364;52.270;10.546;2022-10-23T02:30:32;6.90;;;4.38;;
54454;SDS011;40364;52.270;10.546;2022-10-23T02:33:00;10.00;;;3.97;;
54454;SDS011;40364;52.270;10.546;2022-10-23T02:35:28;8.15;;;3.63;;
54454;SDS011;40364;52.270;10.546;2022-10-23T02:37:55;9.18;;;4.20;;
54454;SDS011;40364;52.270;10.546;2022-10-23T02:40:23;8.63;;;3.83;;
54454;SDS011;40364;52.270;10.546;2022-10-23T02:42:56;7.22;;;3.80;;
54454;SDS011;40364;52.270;10.546;2022-10-23T02:45:28;7.22;;;3.75;;
54454;SDS011;40364;52.270;10.546;2022-10-23T02:48:02;7.07;;;3.47;;
54454;SDS011;40364;52.270;10.546;2022-10-23T02:50:36;6.05;;;3.85;;
54454;SDS011;40364;52.270;10.546;2022-10-23T02:53:13;9.70;;;4.53;;
54454;SDS011;40364;52.270;10.546;2022-10-23T02:55:45;6.60;;;3.72;;
54454;SDS011;40364;52.270;10.546;2022-10-23T02:58:23;10.77;;;4.28;;
54454;SDS011;40364;52.270;10.546;2022-10-23T03:00:54;8.48;;;3.95;;
54454;SDS011;40364;52.270;10.546;2022-10-23T03:03:27;9.70;;;3.95;;
54454;SDS011;40364;52.270;10.546;2022-10-23T03:05:58;6.32;;;4.03;;
54454;SDS011;40364;52.270;10.546;2022-10-23T03:08:25;5.65;;;3.88;;
54454;SDS011;40364;52.270;10.546;2022-10-23T03:10:51;6.05;;;3.33;;
54454;SDS011;40364;52.270;10.546;2022-10-23T03:13:18;10.63;;;4.05;;
54454;SDS011;40364;52.270;10.546;2022-10-23T03:15:45;11.20;;;3.72;;
54454;SDS011;40364;52.270;10.546;2022-10-23T03:18:11;7.40;;;3.88;;
54454;SDS011;40364;52.270;10.546;2022-10-23T03:20:39;8.70;;;4.22;;
54454;SDS011;40364;52.270;10.546;2022-10-23T03:23:06;8.35;;;3.88;;
54454;SDS011;40364;52.270;10.546;2022-10-23T03:25:36;8.20;;;3.55;;
54454;SDS011;40364;52.270;10.546;2022-10-23T03:28:03;10.95;;;3.47;;
54454;SDS011;40364;52.270;10.546;2022-10-23T03:30:29;8.10;;;4.30;;
54454;SDS011;40364;52.270;10.546;2022-10-23T03:32:56;9.23;;;3.95;;
54454;SDS011;40364;52.270;10.546;2022-10-23T03:35:23;12.82;;;3.90;;
54454;SDS011;40364;52.270;10.546;2022-10-23T03:37:51;7.82;;;3.72;;
54454;SDS011;40364;52.270;10.546;2022-10-23T03:40:17;8.45;;;3.83;;
54454;SDS011;40364;52.270;10.546;2022-10-23T03:42:44;7.38;;;3.72;;
54454;SDS011;40364;52.270;10.546;2022-10-23T03:45:11;5.43;;;3.47;;
54454;SDS011;40364;52.270;10.546;2022-10-23T03:47:37;12.73;;;3.78;;
54454;SDS011;40364;52.270;10.546;2022-10-23T03:50:05;11.30;;;3.63;;
54454;SDS011;40364;52.270;10.546;2022-10-23T03:52:32;10.95;;;3.47;;
54454;SDS011;40364;52.270;10.546;2022-10-23T03:55:00;13.88;;;3.25;;
54454;SDS011;40364;52.270;10.546;2022-10-23T03:57:27;5.70;;;3.05;;
54454;SDS011;40364;52.270;10.546;2022-10-23T03:59:54;9.80;;;3.15;;
54454;SDS011;40364;52.270;10.546;2022-10-23T04:02:20;6.93;;;3.55;;
54454;SDS011;40364;52.270;10.546;2022-10-23T04:04:47;8.35;;;3.53;;
54454;SDS011;40364;52.270;10.546;2022-10-23T04:07:14;11.73;;;3.85;;
54454;SDS011;40364;52.270;10.546;2022-10-23T04:09:41;6.90;;;3.83;;
54454;SDS011;40364;52.270;10.546;2022-10-23T04:12:11;5.93;;;4.10;;
54454;SDS011;40364;52.270;10.546;2022-10-23T04:14:37;11.13;;;3.67;;
54454;SDS011;40364;52.270;10.546;2022-10-23T04:17:04;6.68;;;3.70;;
54454;SDS011;40364;52.270;10.546;2022-10-23T04:19:30;9.13;;;3.85;;
54454;SDS011;40364;52.270;10.546;2022-10-23T04:21:57;8.95;;;3.92;;
54454;SDS011;40364;52.270;10.546;2022-10-23T04:24:24;6.60;;;3.63;;
54454;SDS011;40364;52.270;10.546;2022-10-23T04:26:51;5.57;;;3.10;;
54454;SDS011;40364;52.270;10.546;2022-10-23T04:29:19;5.53;;;4.00;;
54454;SDS011;40364;52.270;10.546;2022-10-23T04:31:48;8.20;;;3.47;;
54454;SDS011;40364;52.270;10.546;2022-10-23T04:34:16;4.82;;;3.50;;
54454;SDS011;40364;52.270;10.546;2022-10-23T04:36:43;6.93;;;3.80;;
54454;SDS011;40364;52.270;10.546;2022-10-23T04:39:09;4.97;;;3.53;;
54454;SDS011;40364;52.270;10.546;2022-10-23T04:41:36;6.55;;;3.28;;
54454;SDS011;40364;52.270;10.546;2022-10-23T04:44:04;7.03;;;3.55;;
54454;SDS011;40364;52.270;10.546;2022-10-23T04:46:32;6.00;;;3.25;;
54454;SDS011;40364;52.270;10.546;2022-10-23T04:48:58;7.45;;;3.30;;
54454;SDS011;40364;52.270;10.546;2022-10-23T04:51:25;6.78;;;2.97;;
54454;SDS011;40364;52.270;10.546;2022-10-23T04:53:53;7.07;;;3.42;;
54454;SDS011;40364;52.270;10.546;2022-10-23T04:56:19;6.07;;;3.28;;
54454;SDS011;40364;52.270;10.546;2022-10-23T04:58:46;7.68;;;3.00;;
54454;SDS011;40364;52.270;10.546;2022-10-23T05:01:13;10.95;;;3.85;;
54454;SDS011;40364;52.270;10.546;2022-10-23T05:03:41;7.18;;;3.70;;
54454;SDS011;40364;52.270;10.546;2022-10-23T05:06:08;6.65;;;3.08;;
54454;SDS011;40364;52.270;10.546;2022-10-23T05:08:34;8.30;;;3.20;;
54454;SDS011;40364;52.270;10.546;2022-10-23T05:11:01;4.85;;;3.70;;
54454;SDS011;40364;52.270;10.546;2022-10-23T05:13:27;7.72;;;3.42;;
54454;SDS011;40364;52.270;10.546;2022-10-23T05:15:57;11.65;;;3.28;;
54454;SDS011;40364;52.270;10.546;2022-10-23T05:18:24;8.45;;;3.47;;
54454;SDS011;40364;52.270;10.546;2022-10-23T05:20:56;7.35;;;3.05;;
54454;SDS011;40364;52.270;10.546;2022-10-23T05:23:27;6.22;;;2.90;;
54454;SDS011;40364;52.270;10.546;2022-10-23T05:25:58;4.57;;;3.35;;
54454;SDS011;40364;52.270;10.546;2022-10-23T05:28:27;13.20;;;3.67;;
54454;SDS011;40364;52.270;10.546;2022-10-23T05:30:53;6.68;;;3.85;;
54454;SDS011;40364;52.270;10.546;2022-10-23T05:33:20;5.47;;;2.95;;
54454;SDS011;40364;52.270;10.546;2022-10-23T05:35:47;4.45;;;3.03;;
54454;SDS011;40364;52.270;10.546;2022-10-23T05:38:15;8.60;;;3.50;;
54454;SDS011;40364;52.270;10.546;2022-10-23T05:40:42;5.40;;;3.08;;
54454;SDS011;40364;52.270;10.546;2022-10-23T05:43:20;6.15;;;3.42;;
54454;SDS011;40364;52.270;10.546;2022-10-23T05:45:47;5.78;;;3.05;;
54454;SDS011;40364;52.270;10.546;2022-10-23T05:48:14;5.15;;;2.95;;
54454;SDS011;40364;52.270;10.546;2022-10-23T05:50:41;4.53;;;3.10;;
54454;SDS011;40364;52.270;10.546;2022-10-23T05:53:08;4.90;;;2.67;;
54454;SDS011;40364;52.270;10.546;2022-10-23T05:55:36;9.15;;;3.08;;
54454;SDS011;40364;52.270;10.546;2022-10-23T05:58:03;7.82;;;3.65;;
54454;SDS011;40364;52.270;10.546;2022-10-23T06:00:30;7.65;;;3.40;;
54454;SDS011;40364;52.270;10.546;2022-10-23T06:02:57;6.60;;;3.03;;
54454;SDS011;40364;52.270;10.546;2022-10-23T06:05:24;5.65;;;3.00;;
54454;SDS011;40364;52.270;10.546;2022-10-23T06:07:51;5.97;;;2.78;;
54454;SDS011;40364;52.270;10.546;2022-10-23T06:10:17;8.10;;;3.15;;
54454;SDS011;40364;52.270;10.546;2022-10-23T06:12:45;10.98;;;3.40;;
54454;SDS011;40364;52.270;10.546;2022-10-23T06:15:12;6.05;;;2.95;;
54454;SDS011;40364;52.270;10.546;2022-10-23T06:17:39;9.25;;;2.95;;
54454;SDS011;40364;52.270;10.546;2022-10-23T06:20:06;5.20;;;3.17;;
54454;SDS011;40364;52.270;10.546;2022-10-23T06:22:34;4.78;;;3.13;;
54454;SDS011;40364;52.270;10.546;2022-10-23T06:25:00;7.88;;;3.40;;
54454;SDS011;40364;52.270;10.546;2022-10-23T06:27:27;5.05;;;2.70;;
54454;SDS011;40364;52.270;10.546;2022-10-23T06:29:55;9.65;;;3.60;;
54454;SDS011;40364;52.270;10.546;2022-10-23T06:32:21;6.05;;;2.90;;
54454;SDS011;40364;52.270;10.546;2022-10-23T06:34:49;5.78;;;3.10;;
54454;SDS011;40364;52.270;10.546;2022-10-23T06:37:16;8.32;;;3.35;;
54454;SDS011;40364;52.270;10.546;2022-10-23T06:39:43;8.57;;;3.10;;
54454;SDS011;40364;52.270;10.546;2022-10-23T06:42:10;5.32;;;2.55;;
54454;SDS011;40364;52.270;10.546;2022-10-23T06:44:37;5.18;;;2.90;;
54454;SDS011;40364;52.270;10.546;2022-10-23T06:47:07;10.45;;;3.10;;
54454;SDS011;40364;52.270;10.546;2022-10-23T06:49:37;7.45;;;2.72;;
54454;SDS011;40364;52.270;10.546;2022-10-23T06:52:05;4.50;;;3.05;;
54454;SDS011;40364;52.270;10.546;2022-10-23T06:54:33;6.70;;;3.25;;
54454;SDS011;40364;52.270;10.546;2022-10-23T06:57:01;4.88;;;3.00;;
54454;SDS011;40364;52.270;10.546;2022-10-23T06:59:28;6.28;;;3.75;;
54454;SDS011;40364;52.270;10.546;2022-10-23T07:01:57;6.40;;;3.03;;
54454;SDS011;40364;52.270;10.546;2022-10-23T07:04:25;7.47;;;3.17;;
54454;SDS011;40364;52.270;10.546;2022-10-23T07:06:53;6.85;;;3.03;;
54454;SDS011;40364;52.270;10.546;2022-10-23T07:09:20;7.63;;;3.00;;
54454;SDS011;40364;52.270;10.546;2022-10-23T07:11:47;6.55;;;2.95;;
54454;SDS011;40364;52.270;10.546;2022-10-23T07:14:17;6.25;;;3.05;;
54454;SDS011;40364;52.270;10.546;2022-10-23T07:16:45;5.95;;;3.15;;
54454;SDS011;40364;52.270;10.546;2022-10-23T07:19:12;6.47;;;2.55;;
54454;SDS011;40364;52.270;10.546;2022-10-23T07:21:41;6.38;;;2.58;;
54454;SDS011;40364;52.270;10.546;2022-10-23T07:24:09;5.47;;;2.72;;
54454;SDS011;40364;52.270;10.546;2022-10-23T07:26:44;5.90;;;2.63;;
54454;SDS011;40364;52.270;10.546;2022-10-23T07:29:11;8.18;;;2.50;;
54454;SDS011;40364;52.270;10.546;2022-10-23T07:31:38;4.78;;;2.38;;
54454;SDS011;40364;52.270;10.546;2022-10-23T07:34:05;6.68;;;2.67;;
54454;SDS011;40364;52.270;10.546;2022-10-23T07:36:32;6.78;;;2.60;;
54454;SDS011;40364;52.270;10.546;2022-10-23T07:39:00;8.70;;;2.67;;
54454;SDS011;40364;52.270;10.546;2022-10-23T07:41:27;5.15;;;2.70;;
54454;SDS011;40364;52.270;10.546;2022-10-23T07:43:54;6.63;;;2.58;;
54454;SDS011;40364;52.270;10.546;2022-10-23T07:46:21;6.00;;;2.90;;
54454;SDS011;40364;52.270;10.546;2022-10-23T07:48:48;6.07;;;2.95;;
54454;SDS011;40364;52.270;10.546;2022-10-23T07:51:15;10.32;;;3.25;;
54454;SDS011;40364;52.270;10.546;2022-10-23T07:53:42;6.68;;;3.78;;
54454;SDS011;40364;52.270;10.546;2022-10-23T07:56:13;6.20;;;2.72;;
54454;SDS011;40364;52.270;10.546;2022-10-23T07:58:41;7.35;;;2.80;;
54454;SDS011;40364;52.270;10.546;2022-10-23T08:01:13;3.78;;;2.53;;
54454;SDS011;40364;52.270;10.546;2022-10-23T08:03:43;6.20;;;2.90;;
54454;SDS011;40364;52.270;10.546;2022-10-23T08:06:10;6.65;;;2.80;;
54454;SDS011;40364;52.270;10.546;2022-10-23T08:08:37;7.93;;;2.75;;
54454;SDS011;40364;52.270;10.546;2022-10-23T08:11:04;4.90;;;2.47;;
54454;SDS011;40364;52.270;10.546;2022-10-23T08:13:33;4.78;;;2.17;;
54454;SDS011;40364;52.270;10.546;2022-10-23T08:15:59;4.88;;;2.50;;
54454;SDS011;40364;52.270;10.546;2022-10-23T08:18:27;3.45;;;2.20;;
54454;SDS011;40364;52.270;10.546;2022-10-23T08:20:58;7.05;;;2.63;;
54454;SDS011;40364;52.270;10.546;2022-10-23T08:23:25;8.48;;;2.20;;
54454;SDS011;40364;52.270;10.546;2022-10-23T08:25:55;6.78;;;2.20;;
54454;SDS011;40364;52.270;10.546;2022-10-23T08:28:23;7.00;;;2.40;;
54454;SDS011;40364;52.270;10.546;2022-10-23T08:30:52;5.18;;;2.30;;
54454;SDS011;40364;52.270;10.546;2022-10-23T08:33:20;4.22;;;2.22;;
54454;SDS011;40364;52.270;10.546;2022-10-23T08:35:48;7.38;;;2.15;;
54454;SDS011;40364;52.270;10.546;2022-10-23T08:38:15;4.90;;;2.03;;
54454;SDS011;40364;52.270;10.546;2022-10-23T08:40:43;3.10;;;2.15;;
54454;SDS011;40364;52.270;10.546;2022-10-23T08:43:12;8.73;;;2.38;;
54454;SDS011;40364;52.270;10.546;2022-10-23T08:45:44;4.72;;;2.25;;
54454;SDS011;40364;52.270;10.546;2022-10-23T08:48:17;8.77;;;2.25;;
54454;SDS011;40364;52.270;10.546;2022-10-23T08:53:21;6.78;;;1.90;;
54454;SDS011;40364;52.270;10.546;2022-10-23T08:55:56;6.25;;;1.80;;
54454;SDS011;40364;52.270;10.546;2022-10-23T08:58:29;8.30;;;2.03;;
54454;SDS011;40364;52.270;10.546;2022-10-23T09:01:02;4.65;;;1.98;;
54454;SDS011;40364;52.270;10.546;2022-10-23T09:03:50;9.07;;;2.20;;
54454;SDS011;40364;52.270;10.546;2022-10-23T09:06:18;10.90;;;2.40;;
54454;SDS011;40364;52.270;10.546;2022-10-23T09:08:56;6.63;;;1.52;;
54454;SDS011;40364;52.270;10.546;2022-10-23T09:11:35;7.57;;;1.92;;
54454;SDS011;40364;52.270;10.546;2022-10-23T09:14:19;5.22;;;1.63;;
54454;SDS011;40364;52.270;10.546;2022-10-23T09:17:06;4.32;;;1.80;;
54454;SDS011;40364;52.270;10.546;2022-10-23T09:19:43;4.13;;;1.80;;
54454;SDS011;40364;52.270;10.546;2022-10-23T09:22:11;9.70;;;1.77;;
54454;SDS011;40364;52.270;10.546;2022-10-23T09:24:41;3.53;;;1.80;;
54454;SDS011;40364;52.270;10.546;2022-10-23T09:27:09;8.13;;;1.90;;
54454;SDS011;40364;52.270;10.546;2022-10-23T09:29:46;4.15;;;1.90;;
54454;SDS011;40364;52.270;10.546;2022-10-23T09:32:13;6.60;;;1.67;;
54454;SDS011;40364;52.270;10.546;2022-10-23T09:34:50;4.28;;;1.85;;
54454;SDS011;40364;52.270;10.546;2022-10-23T09:37:22;8.13;;;2.22;;
54454;SDS011;40364;52.270;10.546;2022-10-23T09:40:03;7.28;;;2.15;;
54454;SDS011;40364;52.270;10.546;2022-10-23T09:42:49;5.35;;;1.90;;
54454;SDS011;40364;52.270;10.546;2022-10-23T09:45:24;4.78;;;1.80;;
54454;SDS011;40364;52.270;10.546;2022-10-23T09:48:03;3.60;;;1.35;;
54454;SDS011;40364;52.270;10.546;2022-10-23T09:50:33;6.15;;;1.42;;
54454;SDS011;40364;52.270;10.546;2022-10-23T09:53:00;6.70;;;1.98;;
54454;SDS011;40364;52.270;10.546;2022-10-23T09:55:27;4.00;;;1.48;;
54454;SDS011;40364;52.270;10.546;2022-10-23T09:57:54;11.07;;;2.40;;
54454;SDS011;40364;52.270;10.546;2022-10-23T10:00:22;5.07;;;1.67;;
54454;SDS011;40364;52.270;10.546;2022-10-23T10:02:54;5.30;;;1.83;;
54454;SDS011;40364;52.270;10.546;2022-10-23T10:05:22;5.93;;;1.88;;
54454;SDS011;40364;52.270;10.546;2022-10-23T10:07:57;3.33;;;1.48;;
54454;SDS011;40364;52.270;10.546;2022-10-23T10:10:29;3.85;;;1.50;;
54454;SDS011;40364;52.270;10.546;2022-10-23T10:13:02;7.80;;;2.08;;
54454;SDS011;40364;52.270;10.546;2022-10-23T10:15:43;6.72;;;1.40;;
54454;SDS011;40364;52.270;10.546;2022-10-23T10:18:16;3.15;;;1.40;;
54454;SDS011;40364;52.270;10.546;2022-10-23T10:20:51;4.65;;;1.73;;
54454;SDS011;40364;52.270;10.546;2022-10-23T10:23:28;4.95;;;1.70;;
54454;SDS011;40364;52.270;10.546;2022-10-23T10:26:02;6.43;;;1.35;;
54454;SDS011;40364;52.270;10.546;2022-10-23T10:28:43;4.63;;;1.40;;
54454;SDS011;40364;52.270;10.546;2022-10-23T10:31:22;5.55;;;1.42;;
54454;SDS011;40364;52.270;10.546;2022-10-23T10:34:00;5.95;;;1.38;;
54454;SDS011;40364;52.270;10.546;2022-10-23T10:36:45;2.58;;;1.00;;
54454;SDS011;40364;52.270;10.546;2022-10-23T10:39:22;3.45;;;1.20;;
54454;SDS011;40364;52.270;10.546;2022-10-23T10:42:02;5.90;;;1.50;;
54454;SDS011;40364;52.270;10.546;2022-10-23T10:45:02;5.93;;;1.67;;
54454;SDS011;40364;52.270;10.546;2022-10-23T10:47:38;8.40;;;1.50;;
54454;SDS011;40364;52.270;10.546;2022-10-23T10:50:16;4.97;;;1.33;;
54454;SDS011;40364;52.270;10.546;2022-10-23T10:52:49;4.25;;;1.42;;
54454;SDS011;40364;52.270;10.546;2022-10-23T10:55:24;3.78;;;1.77;;
54454;SDS011;40364;52.270;10.546;2022-10-23T10:57:56;6.65;;;1.25;;
54454;SDS011;40364;52.270;10.546;2022-10-23T11:00:29;6.95;;;1.50;;
54454;SDS011;40364;52.270;10.546;2022-10-23T11:02:59;5.90;;;1.33;;
54454;SDS011;40364;52.270;10.546;2022-10-23T11:05:30;5.38;;;1.17;;
54454;SDS011;40364;52.270;10.546;2022-10-23T11:08:03;1.98;;;1.20;;
54454;SDS011;40364;52.270;10.546;2022-10-23T11:10:33;5.35;;;1.30;;
54454;SDS011;40364;52.270;10.546;2022-10-23T11:13:11;1.98;;;1.02;;
54454;SDS011;40364;52.270;10.546;2022-10-23T11:15:49;4.32;;;1.63;;
54454;SDS011;40364;52.270;10.546;2022-10-23T11:18:23;4.70;;;1.80;;
54454;SDS011;40364;52.270;10.546;2022-10-23T11:20:58;3.05;;;1.15;;
54454;SDS011;40364;52.270;10.546;2022-10-23T11:23:47;4.95;;;1.20;;
54454;SDS011;40364;52.270;10.546;2022-10-23T11:26:33;5.20;;;1.30;;
54454;SDS011;40364;52.270;10.546;2022-10-23T11:29:20;6.25;;;1.60;;
54454;SDS011;40364;52.270;10.546;2022-10-23T11:32:03;10.25;;;1.33;;
54454;SDS011;40364;52.270;10.546;2022-10-23T11:34:48;12.82;;;2.10;;
54454;SDS011;40364;52.270;10.546;2022-10-23T11:37:27;2.03;;;1.13;;
54454;SDS011;40364;52.270;10.546;2022-10-23T11:39:57;6.43;;;1.38;;
54454;SDS011;40364;52.270;10.546;2022-10-23T11:42:32;3.63;;;1.00;;
54454;SDS011;40364;52.270;10.546;2022-10-23T11:45:24;1.90;;;1.02;;
54454;SDS011;40364;52.270;10.546;2022-10-23T11:47:56;2.10;;;1.10;;
54454;SDS011;40364;52.270;10.546;2022-10-23T11:50:25;5.03;;;2.35;;
54454;SDS011;40364;52.270;10.546;2022-10-23T11:53:00;3.22;;;1.10;;
54454;SDS011;40364;52.270;10.546;2022-10-23T11:55:31;5.47;;;1.30;;
54454;SDS011;40364;52.270;10.546;2022-10-23T11:58:07;2.90;;;1.15;;
54454;SDS011;40364;52.270;10.546;2022-10-23T12:00:54;3.95;;;1.63;;
54454;SDS011;40364;52.270;10.546;2022-10-23T12:03:27;1.60;;;0.90;;
54454;SDS011;40364;52.270;10.546;2022-10-23T12:05:58;2.45;;;0.90;;
54454;SDS011;40364;52.270;10.546;2022-10-23T12:08:28;1.75;;;1.00;;
54454;SDS011;40364;52.270;10.546;2022-10-23T12:10:57;7.72;;;1.65;;
54454;SDS011;40364;52.270;10.546;2022-10-23T12:13:30;3.78;;;1.50;;
54454;SDS011;40364;52.270;10.546;2022-10-23T12:16:09;2.00;;;0.80;;
54454;SDS011;40364;52.270;10.546;2022-10-23T12:18:47;4.50;;;0.90;;
54454;SDS011;40364;52.270;10.546;2022-10-23T12:21:17;1.67;;;0.90;;
54454;SDS011;40364;52.270;10.546;2022-10-23T12:23:51;1.45;;;0.90;;
54454;SDS011;40364;52.270;10.546;2022-10-23T12:26:37;6.25;;;1.33;;
54454;SDS011;40364;52.270;10.546;2022-10-23T12:29:18;2.88;;;1.10;;
54454;SDS011;40364;52.270;10.546;2022-10-23T12:31:54;2.20;;;0.90;;
54454;SDS011;40364;52.270;10.546;2022-10-23T12:34:30;2.85;;;0.95;;
54454;SDS011;40364;52.270;10.546;2022-10-23T12:37:08;2.78;;;0.90;;
54454;SDS011;40364;52.270;10.546;2022-10-23T12:40:00;11.00;;;1.52;;
54454;SDS011;40364;52.270;10.546;2022-10-23T12:42:27;2.45;;;1.08;;
54454;SDS011;40364;52.270;10.546;2022-10-23T12:44:59;2.35;;;0.95;;
54454;SDS011;40364;52.270;10.546;2022-10-23T12:47:28;3.13;;;1.05;;
54454;SDS011;40364;52.270;10.546;2022-10-23T12:49:55;2.80;;;1.05;;
54454;SDS011;40364;52.270;10.546;2022-10-23T12:52:22;2.58;;;1.00;;
54454;SDS011;40364;52.270;10.546;2022-10-23T12:54:49;6.78;;;1.02;;
54454;SDS011;40364;52.270;10.546;2022-10-23T12:57:18;4.70;;;1.30;;
54454;SDS011;40364;52.270;10.546;2022-10-23T12:59:46;3.75;;;1.13;;
54454;SDS011;40364;52.270;10.546;2022-10-23T13:02:16;3.35;;;1.10;;
54454;SDS011;40364;52.270;10.546;2022-10-23T13:04:47;1.67;;;0.88;;
54454;SDS011;40364;52.270;10.546;2022-10-23T13:07:16;6.40;;;1.05;;
54454;SDS011;40364;52.270;10.546;2022-10-23T13:09:46;2.70;;;1.48;;
54454;SDS011;40364;52.270;10.546;2022-10-23T13:12:22;3.13;;;0.90;;
54454;SDS011;40364;52.270;10.546;2022-10-23T13:14:56;8.32;;;1.08;;
54454;SDS011;40364;52.270;10.546;2022-10-23T13:17:36;5.88;;;1.35;;
54454;SDS011;40364;52.270;10.546;2022-10-23T13:20:08;2.00;;;0.80;;
54454;SDS011;40364;52.270;10.546;2022-10-23T13:22:36;2.65;;;0.80;;
54454;SDS011;40364;52.270;10.546;2022-10-23T13:25:18;3.78;;;0.90;;
54454;SDS011;40364;52.270;10.546;2022-10-23T13:27:46;3.42;;;1.20;;
54454;SDS011;40364;52.270;10.546;2022-10-23T13:30:26;1.30;;;0.75;;
54454;SDS011;40364;52.270;10.546;2022-10-23T13:32:55;1.33;;;0.82;;
54454;SDS011;40364;52.270;10.546;2022-10-23T13:35:21;2.35;;;0.90;;
54454;SDS011;40364;52.270;10.546;2022-10-23T13:37:49;6.07;;;0.80;;
54454;SDS011;40364;52.270;10.546;2022-10-23T13:40:20;4.47;;;0.90;;
54454;SDS011;40364;52.270;10.546;2022-10-23T13:42:49;2.88;;;0.82;;
54454;SDS011;40364;52.270;10.546;2022-10-23T13:45:25;5.18;;;1.20;;
54454;SDS011;40364;52.270;10.546;2022-10-23T13:47:53;2.80;;;0.98;;
54454;SDS011;40364;52.270;10.546;2022-10-23T13:50:21;4.45;;;0.95;;
54454;SDS011;40364;52.270;10.546;2022-10-23T13:52:47;3.15;;;0.98;;
54454;SDS011;40364;52.270;10.546;2022-10-23T13:55:16;2.78;;;0.73;;
54454;SDS011;40364;52.270;10.546;2022-10-23T13:57:47;4.75;;;1.10;;
54454;SDS011;40364;52.270;10.546;2022-10-23T14:00:14;5.43;;;1.30;;
54454;SDS011;40364;52.270;10.546;2022-10-23T14:02:41;2.85;;;1.27;;
54454;SDS011;40364;52.270;10.546;2022-10-23T14:05:10;2.55;;;1.00;;
54454;SDS011;40364;52.270;10.546;2022-10-23T14:07:37;2.08;;;0.95;;
54454;SDS011;40364;52.270;10.546;2022-10-23T14:10:12;1.67;;;0.90;;
54454;SDS011;40364;52.270;10.546;2022-10-23T14:15:34;3.85;;;1.20;;
54454;SDS011;40364;52.270;10.546;2022-10-23T14:18:01;4.50;;;1.27;;
54454;SDS011;40364;52.270;10.546;2022-10-23T14:20:36;7.82;;;1.17;;
54454;SDS011;40364;52.270;10.546;2022-10-23T14:23:03;2.67;;;1.10;;
54454;SDS011;40364;52.270;10.546;2022-10-23T14:25:30;6.63;;;1.23;;
54454;SDS011;40364;52.270;10.546;2022-10-23T14:27:57;4.78;;;1.00;;
54454;SDS011;40364;52.270;10.546;2022-10-23T14:30:29;2.33;;;1.52;;
54454;SDS011;40364;52.270;10.546;2022-10-23T14:32:56;3.50;;;1.30;;
54454;SDS011;40364;52.270;10.546;2022-10-23T14:35:22;3.00;;;1.58;;
54454;SDS011;40364;52.270;10.546;2022-10-23T14:37:51;5.90;;;1.60;;
54454;SDS011;40364;52.270;10.546;2022-10-23T14:40:18;4.20;;;1.80;;
54454;SDS011;40364;52.270;10.546;2022-10-23T14:42:44;6.63;;;1.50;;
54454;SDS011;40364;52.270;10.546;2022-10-23T14:45:11;2.97;;;1.17;;
54454;SDS011;40364;52.270;10.546;2022-10-23T14:47:38;7.93;;;1.52;;
54454;SDS011;40364;52.270;10.546;2022-10-23T14:50:05;2.58;;;1.13;;
54454;SDS011;40364;52.270;10.546;2022-10-23T14:52:32;5.93;;;1.35;;
54454;SDS011;40364;52.270;10.546;2022-10-23T14:55:00;3.17;;;1.00;;
54454;SDS011;40364;52.270;10.546;2022-10-23T14:57:27;3.50;;;1.15;;
54454;SDS011;40364;52.270;10.546;2022-10-23T15:00:09;5.88;;;1.30;;